EZY87EW EHAM-EGKK
Flight info
| Callsign | EZY87EW |
|---|---|
| Flight time | 0h 49m |
| Altitude | 22000 |
| Route | IDRID L980 ABNED Z344 AMRIV Q63 ARREK Y4 TEBRA |
| Aircraft | A320/M-SDE2E3FGHIJ1RWXYZ/LB1 |
Departure
| Time | 2026-05-04 08:44 |
|---|---|
| Airport | Amsterdam Airport Schiphol (EHAM) |
Arrival
| Time | 2026-05-04 09:34 |
|---|---|
| Airport | London Gatwick Airport (EGKK) |
| Time | Latitude | Longitude | Altitude | Speed | Heading |
|---|---|---|---|---|---|
| 2026-05-04 08:27 | 52.30714 | 4.77216 | -2 ft | 0 kts | 3° |
| 2026-05-04 08:37 | 52.30654 | 4.77155 | -4 ft | 3 kts | 84° |
| 2026-05-04 08:37 | 52.30651 | 4.77126 | -4 ft | 2 kts | 92° |
| 2026-05-04 08:40 | 52.30926 | 4.77612 | -4 ft | 8 kts | 2° |
| 2026-05-04 08:40 | 52.30997 | 4.77617 | -4 ft | 14 kts | 4° |
| 2026-05-04 08:40 | 52.31040 | 4.77622 | -3 ft | 3 kts | 5° |
| 2026-05-04 08:41 | 52.31064 | 4.77626 | -3 ft | 6 kts | 5° |
| 2026-05-04 08:41 | 52.31110 | 4.77631 | -3 ft | 7 kts | 4° |
| 2026-05-04 08:41 | 52.31158 | 4.77637 | -3 ft | 7 kts | 4° |
| 2026-05-04 08:41 | 52.31255 | 4.77642 | -3 ft | 21 kts | 2° |
| 2026-05-04 08:42 | 52.31404 | 4.77658 | -1 ft | 22 kts | 356° |
| 2026-05-04 08:42 | 52.31519 | 4.77558 | -3 ft | 14 kts | 326° |
| 2026-05-04 08:42 | 52.31572 | 4.77580 | -3 ft | 12 kts | 41° |
| 2026-05-04 08:42 | 52.31590 | 4.77693 | -2 ft | 12 kts | 84° |
| 2026-05-04 08:43 | 52.31596 | 4.77823 | 0 ft | 10 kts | 86° |
| 2026-05-04 08:43 | 52.31559 | 4.77954 | 3 ft | 14 kts | 159° |
| 2026-05-04 08:43 | 52.31395 | 4.77949 | 0 ft | 50 kts | 183° |
| 2026-05-04 08:43 | 52.31040 | 4.77916 | -8 ft | 100 kts | 184° |
| 2026-05-04 08:44 | 52.29786 | 4.77797 | 117 ft | 160 kts | 184° |
| 2026-05-04 08:44 | 52.29043 | 4.77712 | 635 ft | 155 kts | 184° |
| 2026-05-04 08:46 | 52.21003 | 4.80407 | 4405 ft | 209 kts | 200° |
| 2026-05-04 08:46 | 52.19845 | 4.78916 | 4915 ft | 222 kts | 241° |
| 2026-05-04 08:46 | 52.19520 | 4.76454 | 5510 ft | 232 kts | 277° |
| 2026-05-04 08:46 | 52.19841 | 4.73786 | 6080 ft | 248 kts | 282° |
| 2026-05-04 08:47 | 52.20235 | 4.70940 | 6637 ft | 266 kts | 282° |
| 2026-05-04 08:47 | 52.20654 | 4.67956 | 7387 ft | 273 kts | 282° |
| 2026-05-04 08:47 | 52.21075 | 4.64930 | 8278 ft | 275 kts | 282° |
| 2026-05-04 08:47 | 52.21495 | 4.61875 | 9202 ft | 277 kts | 281° |
| 2026-05-04 08:48 | 52.21915 | 4.58789 | 10082 ft | 280 kts | 279° |
| 2026-05-04 08:48 | 52.22077 | 4.55582 | 10659 ft | 291 kts | 266° |
| 2026-05-04 08:48 | 52.21721 | 4.52295 | 11103 ft | 307 kts | 252° |
| 2026-05-04 08:48 | 52.21003 | 4.48942 | 11617 ft | 319 kts | 250° |
| 2026-05-04 08:49 | 52.20271 | 4.45494 | 12355 ft | 324 kts | 251° |
| 2026-05-04 08:50 | 52.15741 | 4.24088 | 16585 ft | 342 kts | 250° |
| 2026-05-04 08:50 | 52.14958 | 4.20413 | 17254 ft | 345 kts | 250° |
| 2026-05-04 08:51 | 52.14166 | 4.16704 | 17914 ft | 348 kts | 250° |
| 2026-05-04 08:51 | 52.13373 | 4.12975 | 18531 ft | 351 kts | 250° |
| 2026-05-04 08:51 | 52.12572 | 4.09213 | 19114 ft | 353 kts | 250° |
| 2026-05-04 08:51 | 52.11765 | 4.05437 | 19716 ft | 354 kts | 250° |
| 2026-05-04 08:52 | 52.10951 | 4.01646 | 20316 ft | 356 kts | 250° |
| 2026-05-04 08:52 | 52.10133 | 3.97847 | 20916 ft | 357 kts | 250° |
| 2026-05-04 08:52 | 52.09309 | 3.94024 | 21492 ft | 359 kts | 250° |
| 2026-05-04 08:52 | 52.08479 | 3.90189 | 21921 ft | 359 kts | 250° |
| 2026-05-04 08:53 | 52.07653 | 3.86385 | 21986 ft | 351 kts | 250° |
| 2026-05-04 08:54 | 52.02203 | 3.61368 | 22011 ft | 336 kts | 250° |
| 2026-05-04 08:55 | 52.01410 | 3.57758 | 22008 ft | 336 kts | 250° |
| 2026-05-04 08:55 | 52.00636 | 3.54237 | 22014 ft | 336 kts | 250° |
| 2026-05-04 08:55 | 51.99814 | 3.50697 | 22009 ft | 336 kts | 245° |
| 2026-05-04 08:55 | 51.98641 | 3.47428 | 22011 ft | 336 kts | 234° |
| 2026-05-04 08:57 | 51.88929 | 3.26012 | 22000 ft | 337 kts | 234° |
| 2026-05-04 09:01 | 51.73055 | 2.79810 | 22004 ft | 337 kts | 243° |
| 2026-05-04 09:01 | 51.71984 | 2.76452 | 22003 ft | 337 kts | 243° |
| 2026-05-04 09:01 | 51.70907 | 2.73080 | 22007 ft | 337 kts | 243° |
| 2026-05-04 09:01 | 51.69835 | 2.69724 | 21997 ft | 337 kts | 243° |
| 2026-05-04 09:02 | 51.68941 | 2.66234 | 22009 ft | 338 kts | 253° |
| 2026-05-04 09:02 | 51.68483 | 2.62520 | 22010 ft | 339 kts | 261° |
| 2026-05-04 09:02 | 51.68150 | 2.58766 | 22008 ft | 339 kts | 261° |
| 2026-05-04 09:02 | 51.67811 | 2.55000 | 22006 ft | 339 kts | 261° |
| 2026-05-04 09:03 | 51.67472 | 2.51239 | 22009 ft | 339 kts | 261° |
| 2026-05-04 09:03 | 51.67133 | 2.47483 | 22004 ft | 339 kts | 261° |
| 2026-05-04 09:03 | 51.66792 | 2.43724 | 22008 ft | 339 kts | 261° |
| 2026-05-04 09:03 | 51.66449 | 2.39960 | 22005 ft | 340 kts | 260° |
| 2026-05-04 09:04 | 51.66101 | 2.36195 | 22008 ft | 340 kts | 260° |
| 2026-05-04 09:04 | 51.65752 | 2.32428 | 22009 ft | 340 kts | 260° |
| 2026-05-04 09:04 | 51.65403 | 2.28676 | 22003 ft | 340 kts | 260° |
| 2026-05-04 09:04 | 51.65052 | 2.24910 | 22009 ft | 340 kts | 260° |
| 2026-05-04 09:05 | 51.64701 | 2.21142 | 22008 ft | 340 kts | 260° |
| 2026-05-04 09:05 | 51.64348 | 2.17381 | 22009 ft | 340 kts | 260° |
| 2026-05-04 09:05 | 51.63994 | 2.13623 | 22004 ft | 340 kts | 260° |
| 2026-05-04 09:05 | 51.63640 | 2.09863 | 22006 ft | 340 kts | 260° |
| 2026-05-04 09:06 | 51.63290 | 2.06104 | 22002 ft | 340 kts | 260° |
| 2026-05-04 09:07 | 51.60029 | 1.81581 | 19896 ft | 312 kts | 235° |
| 2026-05-04 09:08 | 51.58672 | 1.78930 | 19493 ft | 312 kts | 228° |
| 2026-05-04 09:08 | 51.57232 | 1.76329 | 19088 ft | 311 kts | 229° |
| 2026-05-04 09:08 | 51.55799 | 1.73730 | 18695 ft | 311 kts | 228° |
| 2026-05-04 09:08 | 51.54365 | 1.71124 | 18294 ft | 311 kts | 228° |
| 2026-05-04 09:09 | 51.52932 | 1.68526 | 17869 ft | 310 kts | 228° |
| 2026-05-04 09:09 | 51.51503 | 1.65934 | 17477 ft | 309 kts | 228° |
| 2026-05-04 09:09 | 51.50082 | 1.63357 | 17092 ft | 307 kts | 229° |
| 2026-05-04 09:09 | 51.48853 | 1.60566 | 16718 ft | 306 kts | 241° |
| 2026-05-04 09:10 | 51.48026 | 1.57423 | 16348 ft | 306 kts | 249° |
| 2026-05-04 09:10 | 51.47301 | 1.54218 | 15967 ft | 305 kts | 249° |
| 2026-05-04 09:10 | 51.46569 | 1.51025 | 15593 ft | 305 kts | 249° |
| 2026-05-04 09:10 | 51.45831 | 1.47834 | 15225 ft | 305 kts | 249° |
| 2026-05-04 09:11 | 51.45093 | 1.44649 | 14865 ft | 305 kts | 249° |
| 2026-05-04 09:11 | 51.44361 | 1.41490 | 14492 ft | 305 kts | 249° |
| 2026-05-04 09:11 | 51.43421 | 1.38441 | 14115 ft | 304 kts | 236° |
| 2026-05-04 09:11 | 51.42049 | 1.35897 | 13851 ft | 300 kts | 221° |
| 2026-05-04 09:12 | 51.40405 | 1.33878 | 13649 ft | 297 kts | 217° |
| 2026-05-04 09:12 | 51.38747 | 1.31920 | 13455 ft | 296 kts | 217° |
| 2026-05-04 09:14 | 51.27251 | 1.18325 | 12056 ft | 291 kts | 217° |
| 2026-05-04 09:14 | 51.25623 | 1.16413 | 11859 ft | 290 kts | 217° |
| 2026-05-04 09:14 | 51.23994 | 1.14508 | 11664 ft | 290 kts | 217° |
| 2026-05-04 09:14 | 51.22370 | 1.12609 | 11467 ft | 289 kts | 217° |
| 2026-05-04 09:15 | 51.20756 | 1.10714 | 11276 ft | 288 kts | 217° |
| 2026-05-04 09:15 | 51.19142 | 1.08817 | 11079 ft | 288 kts | 217° |
| 2026-05-04 09:15 | 51.17533 | 1.06925 | 10885 ft | 287 kts | 217° |
| 2026-05-04 09:15 | 51.15930 | 1.05046 | 10693 ft | 286 kts | 217° |
| 2026-05-04 09:17 | 51.04399 | 0.88665 | 9156 ft | 279 kts | 245° |
| 2026-05-04 09:18 | 51.03578 | 0.85885 | 8963 ft | 278 kts | 244° |
| 2026-05-04 09:18 | 51.02747 | 0.83110 | 8775 ft | 277 kts | 244° |
| 2026-05-04 09:18 | 51.01918 | 0.80352 | 8588 ft | 277 kts | 244° |
| 2026-05-04 09:18 | 51.01089 | 0.77597 | 8401 ft | 276 kts | 244° |
| 2026-05-04 09:19 | 51.00263 | 0.74852 | 8216 ft | 276 kts | 244° |
| 2026-05-04 09:19 | 50.99438 | 0.72105 | 8026 ft | 275 kts | 244° |
| 2026-05-04 09:19 | 50.98616 | 0.69366 | 7842 ft | 274 kts | 244° |
| 2026-05-04 09:19 | 50.97799 | 0.66641 | 7641 ft | 274 kts | 244° |
| 2026-05-04 09:20 | 50.96981 | 0.63914 | 7470 ft | 274 kts | 244° |
| 2026-05-04 09:20 | 50.96161 | 0.61194 | 7266 ft | 273 kts | 244° |
| 2026-05-04 09:20 | 50.95339 | 0.58479 | 7097 ft | 273 kts | 244° |
| 2026-05-04 09:20 | 50.94520 | 0.55772 | 6903 ft | 272 kts | 244° |
| 2026-05-04 09:21 | 50.93702 | 0.53069 | 6716 ft | 272 kts | 244° |
| 2026-05-04 09:21 | 50.92887 | 0.50372 | 6530 ft | 272 kts | 244° |
| 2026-05-04 09:21 | 50.92087 | 0.47666 | 6335 ft | 271 kts | 248° |
| 2026-05-04 09:21 | 50.91640 | 0.44767 | 6149 ft | 272 kts | 264° |
| 2026-05-04 09:22 | 50.91728 | 0.41771 | 5962 ft | 272 kts | 281° |
| 2026-05-04 09:22 | 50.92232 | 0.38889 | 5773 ft | 272 kts | 286° |
| 2026-05-04 09:22 | 50.92760 | 0.36026 | 5593 ft | 271 kts | 285° |
| 2026-05-04 09:22 | 50.93285 | 0.33156 | 5406 ft | 270 kts | 285° |
| 2026-05-04 09:23 | 50.93795 | 0.30359 | 5270 ft | 258 kts | 285° |
| 2026-05-04 09:23 | 50.94283 | 0.27687 | 5138 ft | 247 kts | 287° |
| 2026-05-04 09:23 | 50.95003 | 0.25275 | 4976 ft | 238 kts | 305° |
| 2026-05-04 09:23 | 50.95996 | 0.23258 | 4875 ft | 237 kts | 308° |
| 2026-05-04 09:25 | 51.04091 | 0.11825 | 3779 ft | 221 kts | 4° |
| 2026-05-04 09:25 | 51.05626 | 0.11988 | 3629 ft | 221 kts | 4° |
| 2026-05-04 09:26 | 51.07139 | 0.12136 | 3479 ft | 220 kts | 4° |
| 2026-05-04 09:26 | 51.08668 | 0.12280 | 3324 ft | 220 kts | 4° |
| 2026-05-04 09:26 | 51.10192 | 0.12422 | 3171 ft | 219 kts | 4° |
| 2026-05-04 09:26 | 51.11693 | 0.12563 | 2999 ft | 213 kts | 4° |
| 2026-05-04 09:27 | 51.13159 | 0.12699 | 2853 ft | 209 kts | 2° |
| 2026-05-04 09:27 | 51.14559 | 0.12341 | 2713 ft | 203 kts | 336° |
| 2026-05-04 09:27 | 51.15676 | 0.11040 | 2588 ft | 198 kts | 309° |
| 2026-05-04 09:27 | 51.16298 | 0.09111 | 2457 ft | 197 kts | 283° |
| 2026-05-04 09:28 | 51.16542 | 0.06966 | 2311 ft | 197 kts | 280° |
| 2026-05-04 09:28 | 51.16777 | 0.04838 | 2236 ft | 190 kts | 281° |
| 2026-05-04 09:28 | 51.16999 | 0.02853 | 2155 ft | 173 kts | 281° |
| 2026-05-04 09:28 | 51.17202 | 0.01060 | 2070 ft | 157 kts | 282° |
| 2026-05-04 09:29 | 51.17253 | -0.00609 | 2041 ft | 151 kts | 261° |
| 2026-05-04 09:29 | 51.17070 | -0.02244 | 1988 ft | 151 kts | 260° |
| 2026-05-04 09:29 | 51.16868 | -0.03879 | 1878 ft | 150 kts | 259° |
| 2026-05-04 09:29 | 51.16656 | -0.05506 | 1717 ft | 149 kts | 259° |
| 2026-05-04 09:30 | 51.16440 | -0.07124 | 1520 ft | 149 kts | 258° |
| 2026-05-04 09:30 | 51.16223 | -0.08729 | 1331 ft | 148 kts | 258° |
| 2026-05-04 09:30 | 51.16004 | -0.10332 | 1122 ft | 148 kts | 259° |
| 2026-05-04 09:30 | 51.15787 | -0.11928 | 922 ft | 148 kts | 259° |
| 2026-05-04 09:31 | 51.15561 | -0.13526 | 703 ft | 148 kts | 258° |
| 2026-05-04 09:31 | 51.15356 | -0.15125 | 505 ft | 148 kts | 260° |
| 2026-05-04 09:31 | 51.15138 | -0.16708 | 312 ft | 147 kts | 259° |
| 2026-05-04 09:31 | 51.14917 | -0.18286 | 209 ft | 142 kts | 258° |
| 2026-05-04 09:32 | 51.14795 | -0.19202 | 212 ft | 111 kts | 255° |
| 2026-05-04 09:32 | 51.14664 | -0.20128 | 213 ft | 61 kts | 259° |
| 2026-05-04 09:34 | 51.14862 | -0.20012 | 205 ft | 16 kts | 77° |
| 2026-05-04 09:34 | 51.14890 | -0.19810 | 210 ft | 23 kts | 77° |
| 2026-05-04 09:34 | 51.14929 | -0.19553 | 215 ft | 25 kts | 78° |
| 2026-05-04 09:34 | 51.14965 | -0.19282 | 208 ft | 25 kts | 77° |
| 2026-05-04 09:35 | 51.15007 | -0.18994 | 208 ft | 28 kts | 75° |
| 2026-05-04 09:35 | 51.15048 | -0.18686 | 206 ft | 29 kts | 79° |
| 2026-05-04 09:35 | 51.15086 | -0.18413 | 210 ft | 19 kts | 78° |
| 2026-05-04 09:35 | 51.15113 | -0.18235 | 210 ft | 15 kts | 59° |
| 2026-05-04 09:37 | 51.15449 | -0.18300 | 213 ft | 17 kts | 348° |
| 2026-05-04 09:37 | 51.15588 | -0.18348 | 209 ft | 22 kts | 348° |
| 2026-05-04 09:38 | 51.15661 | -0.18244 | 209 ft | 13 kts | 75° |
| 2026-05-04 09:38 | 51.15723 | -0.18171 | 209 ft | 1 kts | 6° |
| 2026-05-04 09:38 | 51.15748 | -0.18154 | 213 ft | 8 kts | 38° |
| 2026-05-04 09:38 | 51.15780 | -0.18081 | 213 ft | 8 kts | 28° |
| 2026-05-04 09:39 | 51.15836 | -0.18082 | 205 ft | 6 kts | 342° |
| 2026-05-04 09:39 | 51.15877 | -0.18095 | 215 ft | 9 kts | 351° |
| 2026-05-04 09:39 | 51.15926 | -0.18096 | 205 ft | 5 kts | 27° |
| 2026-05-04 09:39 | 51.15930 | -0.18061 | 205 ft | 3 kts | 83° |
| 2026-05-04 09:40 | 51.15933 | -0.18038 | 207 ft | 2 kts | 76° |
| 2026-05-04 09:40 | 51.15935 | -0.18025 | 206 ft | 3 kts | 77° |
| 2026-05-04 09:40 | 51.15940 | -0.17993 | 212 ft | 0 kts | 77° |